Time;durP1;ratioP1;P1;durP2;ratioP2;P2;SDS_P1;SDS_P2;PMS_P1;PMS_P2;Temp;Humidity;BMP_temperature;BMP_pressure;BME280_temperature;BME280_humidity;BME280_pressure;Samples;Min_cycle;Max_cycle;Signal;HPM_P1;HPM_P2
2023/10/11 00:00:38;;;;;;;49.10;20.30;;;;;;;2.93;100.00;101766.07;105689;1254;71629;-78
2023/10/11 00:06:06;;;;;;;75.80;28.50;;;;;;;2.87;100.00;101771.48;105746;1252;60502;-76
2023/10/11 00:11:08;;;;;;;50.70;25.10;;;;;;;2.83;100.00;101776.70;102811;1292;603699;-77
2023/10/11 00:13:36;;;;;;;43.70;20.10;;;;;;;2.76;100.00;101780.55;104632;1275;61202;-77
2023/10/11 00:16:08;;;;;;;41.30;20.60;;;;;;;2.72;100.00;101788.02;104591;1273;60221;-77
2023/10/11 00:18:39;;;;;;;46.60;21.50;;;;;;;2.68;100.00;101790.29;104741;1269;72294;-77
2023/10/11 00:21:10;;;;;;;37.00;18.00;;;;;;;2.64;100.00;101794.28;104595;1269;62623;-78
2023/10/11 00:23:44;;;;;;;35.30;16.80;;;;;;;2.62;100.00;101797.93;104992;1266;211946;-77
2023/10/11 00:26:14;;;;;;;35.70;16.40;;;;;;;2.59;100.00;101807.27;105073;1266;61094;-77
2023/10/11 00:28:44;;;;;;;32.60;15.70;;;;;;;2.54;100.00;101809.91;104992;1263;60459;-76
2023/10/11 00:31:16;;;;;;;26.70;13.60;;;;;;;2.49;100.00;101813.23;105006;1263;72259;-77
2023/10/11 00:33:43;;;;;;;29.90;14.60;;;;;;;2.46;100.00;101812.55;105049;1266;64051;-79
2023/10/11 00:36:10;;;;;;;33.00;16.80;;;;;;;2.43;100.00;101819.82;105067;1266;72463;-77
2023/10/11 00:38:46;;;;;;;30.30;15.80;;;;;;;2.40;100.00;101819.68;105004;1265;61188;-77
2023/10/11 00:41:17;;;;;;;28.20;12.40;;;;;;;2.36;100.00;101823.16;105075;1263;60373;-78
2023/10/11 00:43:50;;;;;;;26.70;13.10;;;;;;;2.33;100.00;101829.73;105199;1264;73035;-76
2023/10/11 00:46:19;;;;;;;92.60;33.90;;;;;;;2.28;100.00;101834.59;104902;1265;64566;-76
2023/10/11 00:48:57;;;;;;;125.50;41.70;;;;;;;2.23;100.00;101837.91;105018;1261;71733;-75
2023/10/11 00:51:32;;;;;;;119.20;42.90;;;;;;;2.18;100.00;101841.20;105590;1260;61414;-75
2023/10/11 00:54:00;;;;;;;125.00;53.40;;;;;;;2.13;100.00;101838.13;105726;1257;59547;-76
2023/10/11 00:56:31;;;;;;;217.00;103.30;;;;;;;2.11;100.00;101839.86;105851;1256;73080;-76
2023/10/11 00:58:59;;;;;;;203.60;104.30;;;;;;;2.08;100.00;101843.33;105714;1257;63984;-75
2023/10/11 01:01:26;;;;;;;194.60;95.20;;;;;;;2.06;100.00;101850.76;105772;1257;71569;-76
2023/10/11 01:03:54;;;;;;;193.40;102.90;;;;;;;2.02;100.00;101855.61;105468;1261;62129;-75
2023/10/11 01:06:25;;;;;;;197.70;109.50;;;;;;;1.99;100.00;101856.48;105854;1255;60355;-77
2023/10/11 01:08:52;;;;;;;187.70;101.20;;;;;;;1.98;100.00;101863.55;105775;1254;73172;-77
2023/10/11 01:11:19;;;;;;;178.10;96.80;;;;;;;1.96;100.00;101866.66;105733;1257;63944;-77
2023/10/11 01:13:52;;;;;;;184.80;91.80;;;;;;;1.92;100.00;101870.81;105825;1255;72454;-78
2023/10/11 01:16:26;;;;;;;178.30;87.30;;;;;;;1.87;100.00;101877.73;105807;1259;61214;-77
2023/10/11 01:18:53;;;;;;;140.80;76.30;;;;;;;1.82;100.00;101878.45;105743;1255;60166;-77
2023/10/11 01:21:20;;;;;;;106.60;53.20;;;;;;;1.79;100.00;101881.04;105632;1254;73022;-77
2023/10/11 01:23:48;;;;;;;101.90;55.70;;;;;;;1.75;100.00;101885.72;105694;1254;62455;-79
2023/10/11 01:26:15;;;;;;;93.60;51.80;;;;;;;1.71;100.00;101888.65;105870;1257;72589;-75
2023/10/11 01:28:48;;;;;;;77.90;43.20;;;;;;;1.66;100.00;101890.38;105737;1257;61229;-78
2023/10/11 01:31:16;;;;;;;68.50;36.30;;;;;;;1.64;100.00;101891.59;105564;1260;60033;-76
2023/10/11 01:33:46;;;;;;;73.30;41.40;;;;;;;1.62;100.00;101894.55;105578;1255;71648;-77
2023/10/11 01:36:22;;;;;;;71.90;41.20;;;;;;;1.60;100.00;101895.58;105967;1251;63600;-79
2023/10/11 01:38:50;;;;;;;69.40;43.20;;;;;;;1.58;100.00;101901.96;105976;1254;72697;-77
2023/10/11 01:41:27;;;;;;;80.60;50.50;;;;;;;1.55;100.00;101903.69;106157;1253;59670;-76
2023/10/11 01:43:55;;;;;;;82.00;46.80;;;;;;;1.52;100.00;101908.52;105874;1250;60093;-75
2023/10/11 01:46:27;;;;;;;69.70;40.80;;;;;;;1.47;100.00;101909.39;106144;1253;73061;-75
2023/10/11 01:48:54;;;;;;;72.30;39.80;;;;;;;1.42;100.00;101910.42;106108;1251;62567;-76
2023/10/11 01:51:28;;;;;;;80.40;43.30;;;;;;;1.38;100.00;101910.77;106106;1254;71668;-75
2023/10/11 01:53:59;;;;;;;68.70;39.10;;;;;;;1.34;100.00;101912.16;106010;1254;61189;-75
2023/10/11 01:56:27;;;;;;;53.20;31.90;;;;;;;1.32;100.00;101914.92;105959;1256;60367;-75
2023/10/11 01:58:56;;;;;;;46.80;27.70;;;;;;;1.29;100.00;101919.23;105913;1251;73258;-76
2023/10/11 02:01:26;;;;;;;47.30;27.50;;;;;;;1.27;100.00;101919.92;105974;1256;63836;-78
2023/10/11 02:03:58;;;;;;;44.80;27.90;;;;;;;1.25;100.00;101923.71;106090;1252;72767;-80
2023/10/11 02:06:32;;;;;;;45.90;25.90;;;;;;;1.23;100.00;101928.19;106035;1254;61204;-77
2023/10/11 02:08:59;;;;;;;42.00;23.90;;;;;;;1.20;100.00;101929.22;106035;1252;61254;-76
2023/10/11 02:11:29;;;;;;;49.60;26.30;;;;;;;1.17;100.00;101932.14;106143;1254;72940;-75
2023/10/11 02:14:00;;;;;;;35.20;23.30;;;;;;;1.13;100.00;101942.14;106233;1253;64397;-77
2023/10/11 02:16:32;;;;;;;40.30;25.40;;;;;;;1.10;100.00;101946.95;106391;1255;72700;-75
2023/10/11 02:18:59;;;;;;;67.30;42.30;;;;;;;1.07;100.00;101950.73;105994;1256;59934;-78
2023/10/11 02:21:29;;;;;;;61.50;44.20;;;;;;;1.02;100.00;101952.46;106084;1257;59640;-77
2023/10/11 02:23:57;;;;;;;45.30;31.10;;;;;;;0.99;100.00;101965.02;106154;1257;72213;-76
2023/10/11 02:26:31;;;;;;;41.20;28.20;;;;;;;0.97;100.00;101967.26;106461;1252;62860;-77
2023/10/11 02:29:01;;;;;;;30.00;18.90;;;;;;;0.93;100.00;101970.01;106106;1251;71409;-78
2023/10/11 02:31:33;;;;;;;21.40;15.50;;;;;;;0.89;100.00;101973.62;106056;1251;61090;-78
2023/10/11 02:34:12;;;;;;;30.20;20.70;;;;;;;0.83;100.00;101982.04;105950;1251;60395;-76
2023/10/11 02:36:42;;;;;;;33.00;19.60;;;;;;;0.77;100.00;101984.44;106130;1253;73057;-77
2023/10/11 02:39:22;;;;;;;27.20;17.10;;;;;;;0.71;100.00;101980.98;106014;1251;62397;-76
2023/10/11 02:41:58;;;;;;;22.30;14.70;;;;;;;0.67;100.00;101981.31;105983;1251;71307;-77
2023/10/11 02:44:26;;;;;;;24.80;17.90;;;;;;;0.61;100.00;101984.21;106047;1254;61146;-78
2023/10/11 02:46:53;;;;;;;22.80;14.90;;;;;;;0.57;100.00;101990.76;105962;1252;59637;-77
2023/10/11 02:49:20;;;;;;;26.50;15.90;;;;;;;0.54;100.00;101997.61;106014;1256;72848;-77
2023/10/11 02:51:55;;;;;;;25.20;13.30;;;;;;;0.51;100.00;102003.27;106115;1254;64006;-77
2023/10/11 02:54:34;;;;;;;29.50;19.60;;;;;;;0.49;100.00;102006.21;106103;1254;72529;-76
2023/10/11 02:57:05;;;;;;;31.40;23.90;;;;;;;0.46;100.00;102010.49;106089;1254;59780;-77
2023/10/11 02:59:33;;;;;;;30.00;20.50;;;;;;;0.45;100.00;102013.07;106138;1251;59685;-76
2023/10/11 03:02:00;;;;;;;28.10;15.90;;;;;;;0.43;100.00;102012.89;106121;1253;71839;-75
2023/10/11 03:04:35;;;;;;;21.60;14.70;;;;;;;0.41;100.00;102017.17;106112;1254;61508;-75
2023/10/11 03:07:02;;;;;;;19.90;11.90;;;;;;;0.39;100.00;102019.56;106058;1251;72525;-76
2023/10/11 03:09:33;;;;;;;17.10;11.60;;;;;;;0.36;100.00;102026.09;106012;1254;61178;-76
2023/10/11 03:12:06;;;;;;;23.10;12.30;;;;;;;0.31;100.00;102027.79;106066;1251;60254;-77
2023/10/11 03:14:42;;;;;;;19.20;14.10;;;;;;;0.29;100.00;102031.58;106097;1254;73071;-80
2023/10/11 03:17:13;;;;;;;21.20;13.90;;;;;;;0.28;100.00;102028.98;105978;1254;63731;-76
2023/10/11 03:19:43;;;;;;;22.90;13.50;;;;;;;0.26;100.00;102034.13;106061;1254;72643;-77
2023/10/11 03:22:20;;;;;;;19.70;12.00;;;;;;;0.25;100.00;102040.33;105845;1257;59891;-80
2023/10/11 03:25:13;;;;;;;15.40;11.50;;;;;;;0.24;100.00;102045.30;105945;1254;60324;-76
2023/10/11 03:27:45;;;;;;;22.30;13.30;;;;;;;0.19;100.00;102048.70;105993;1252;73123;-77
2023/10/11 03:30:15;;;;;;;21.30;14.30;;;;;;;0.16;100.00;102049.03;106145;1253;63901;-76
2023/10/11 03:32:44;;;;;;;26.60;16.70;;;;;;;0.14;100.00;102052.98;106186;1253;71689;-77
2023/10/11 03:35:16;;;;;;;21.20;15.30;;;;;;;0.12;100.00;102060.02;106151;1253;59854;-76
2023/10/11 03:37:57;;;;;;;18.10;14.80;;;;;;;0.11;100.00;102061.22;106283;1251;60403;-76
2023/10/11 03:40:34;;;;;;;23.00;13.70;;;;;;;0.10;100.00;102066.36;106419;1249;73053;-75
2023/10/11 03:43:04;;;;;;;23.90;14.30;;;;;;;0.08;100.00;102072.71;106144;1256;63754;-79
2023/10/11 03:45:34;;;;;;;22.60;13.80;;;;;;;0.07;100.00;102076.99;106340;1253;72663;-76
2023/10/11 03:48:09;;;;;;;21.10;14.90;;;;;;;0.06;100.00;102083.02;106431;1253;59730;-75
2023/10/11 03:50:47;;;;;;;20.50;13.70;;;;;;;0.04;100.00;102092.11;106390;1252;59688;-78
2023/10/11 03:53:17;;;;;;;27.50;16.70;;;;;;;0.01;100.00;102098.98;106051;1254;72769;-77
2023/10/11 03:55:47;;;;;;;22.20;13.40;;;;;;;-0.02;100.00;102096.04;106171;1254;64058;-78
2023/10/11 03:58:33;;;;;;;15.70;11.20;;;;;;;-0.02;100.00;102096.20;106256;1254;71132;-77
2023/10/11 04:01:12;;;;;;;18.20;10.60;;;;;;;-0.02;100.00;102094.14;106197;1254;59739;-79
2023/10/11 04:03:40;;;;;;;14.20;9.00;;;;;;;-0.01;100.00;102095.69;106479;1251;60358;-74
2023/10/11 04:06:14;;;;;;;11.80;7.90;;;;;;;-0.01;100.00;102097.42;105933;1253;72898;-76
2023/10/11 04:08:55;;;;;;;19.20;9.30;;;;;;;0.01;100.00;102098.11;105901;1257;62660;-76
2023/10/11 04:11:30;;;;;;;14.60;9.00;;;;;;;0.04;100.00;102101.23;106122;1253;72655;-76
2023/10/11 04:13:58;;;;;;;17.10;8.80;;;;;;;0.07;100.00;102103.64;106066;1253;61175;-78
2023/10/11 04:16:28;;;;;;;13.70;9.20;;;;;;;0.07;100.00;102109.66;105940;1252;60370;-78
2023/10/11 04:18:55;;;;;;;14.00;9.10;;;;;;;0.06;100.00;102116.36;106159;1253;72647;-77
2023/10/11 04:21:56;;;;;;;19.80;9.50;;;;;;;0.02;100.00;102121.66;106107;1253;63903;-78
2023/10/11 04:24:19;;;;;;;14.20;8.00;;;;;;;-0.02;100.00;102126.80;106147;1251;71606;-79
2023/10/11 04:27:45;;;;;;;13.50;8.70;;;;;;;-0.04;100.00;102130.56;106228;1254;61085;-76
2023/10/11 04:29:47;;;;;;;14.00;10.10;;;;;;;-0.04;100.00;102126.95;106104;1253;60552;-76
2023/10/11 04:32:14;;;;;;;19.90;12.80;;;;;;;0.00;100.00;102132.66;106197;1254;73848;-75
2023/10/11 04:34:55;;;;;;;22.40;12.70;;;;;;;0.06;100.00;102138.38;106073;1251;62337;-78
2023/10/11 04:37:28;;;;;;;27.10;17.60;;;;;;;0.11;100.00;102142.20;106170;1254;72775;-76
2023/10/11 04:39:57;;;;;;;27.80;18.40;;;;;;;0.14;100.00;102142.91;106081;1254;61328;-78
2023/10/11 04:42:28;;;;;;;47.10;20.80;;;;;;;0.17;100.00;102148.09;105974;1254;60437;-79
2023/10/11 04:44:56;;;;;;;39.20;26.80;;;;;;;0.18;100.00;102152.23;105916;1249;73813;-77
2023/10/11 04:47:23;;;;;;;55.70;39.60;;;;;;;0.19;100.00;102156.88;105928;1251;62914;-80
2023/10/11 04:49:54;;;;;;;64.30;41.90;;;;;;;0.22;100.00;102159.98;105936;1255;71749;-80
2023/10/11 04:52:25;;;;;;;48.40;36.00;;;;;;;0.24;100.00;102164.31;106114;1249;60472;-79
2023/10/11 04:54:55;;;;;;;47.80;35.30;;;;;;;0.26;100.00;102170.34;106121;1254;60561;-77
2023/10/11 04:57:40;;;;;;;52.90;34.50;;;;;;;0.29;100.00;102173.64;106231;1249;73894;-78
2023/10/11 05:00:10;;;;;;;59.90;30.80;;;;;;;0.35;100.00;102176.09;105933;1254;63075;-76
2023/10/11 05:02:38;;;;;;;56.90;29.60;;;;;;;0.43;100.00;102180.63;106122;1254;72629;-78
2023/10/11 05:05:10;;;;;;;52.90;30.50;;;;;;;0.50;100.00;102183.77;105992;1257;60893;-76
2023/10/11 05:07:42;;;;;;;48.00;26.80;;;;;;;0.57;100.00;102184.85;106216;1250;60423;-77
2023/10/11 05:12:58;;;;;;;41.10;25.60;;;;;;;0.74;100.00;102195.46;106084;1254;63835;-77
2023/10/11 05:15:35;;;;;;;42.60;25.80;;;;;;;0.82;100.00;102199.64;106147;1251;71198;-77
2023/10/11 05:18:06;;;;;;;34.60;21.20;;;;;;;0.92;100.00;102205.38;106104;1255;60575;-77
2023/10/11 05:23:11;;;;;;;23.90;14.50;;;;;;;1.27;100.00;102209.67;106110;1252;72907;-78
2023/10/11 05:25:58;;;;;;;32.30;12.80;;;;;;;1.72;100.00;102211.55;106167;1253;63863;-78
2023/10/11 05:28:27;;;;;;;16.30;10.10;;;;;;;2.37;100.00;102214.89;106094;1253;72651;-77
2023/10/11 05:31:22;;;;;;;14.90;9.60;;;;;;;2.81;100.00;102220.88;106207;1253;61215;-78
2023/10/11 05:34:29;;;;;;;21.10;9.50;;;;;;;3.23;100.00;102218.00;106132;1253;60361;-80
2023/10/11 05:50:54;;;;;;;13.80;6.50;;;;;;;9.31;100.00;102232.92;105869;1254;73870;-79
2023/10/11 05:53:24;;;;;;;11.60;6.00;;;;;;;10.36;100.00;102236.89;106170;1254;63713;-76
2023/10/11 05:55:52;;;;;;;6.00;4.90;;;;;;;11.31;100.00;102235.33;106122;1251;72575;-78
2023/10/11 05:58:20;;;;;;;12.00;4.40;;;;;;;12.20;94.80;102234.86;106047;1254;60539;-79
2023/10/11 06:00:49;;;;;;;10.10;4.50;;;;;;;13.03;83.17;102236.98;106070;1253;60543;-78
2023/10/11 06:03:16;;;;;;;12.30;6.50;;;;;;;13.79;72.33;102235.46;106159;1249;73874;-77
2023/10/11 06:05:44;;;;;;;5.90;4.20;;;;;;;14.49;63.70;102241.18;106125;1253;62970;-79
2023/10/11 06:08:17;;;;;;;7.80;4.40;;;;;;;15.14;58.24;102245.26;106193;1251;72649;-80
2023/10/11 06:10:44;;;;;;;17.20;4.80;;;;;;;15.77;53.71;102249.24;106114;1252;60453;-80
2023/10/11 06:13:14;;;;;;;5.60;4.00;;;;;;;16.32;50.19;102248.05;106089;1253;60533;-79
2023/10/11 06:16:00;;;;;;;4.90;4.00;;;;;;;16.86;46.54;102248.42;106137;1254;73830;-80
2023/10/11 06:18:43;;;;;;;4.90;3.80;;;;;;;17.40;43.51;102242.98;106149;1254;62863;-78
2023/10/11 06:21:24;;;;;;;3.90;3.10;;;;;;;17.88;41.38;102244.55;106152;1253;72752;-78
2023/10/11 06:23:53;;;;;;;4.80;3.90;;;;;;;18.32;39.85;102256.14;106302;1254;60473;-78
2023/10/11 06:26:28;;;;;;;5.50;4.30;;;;;;;18.64;38.66;102256.88;105952;1251;60479;-78
2023/10/11 06:29:07;;;;;;;4.00;3.00;;;;;;;18.57;38.35;102257.90;105982;1254;73898;-79
2023/10/11 06:31:39;;;;;;;4.60;3.70;;;;;;;18.11;38.65;102255.42;106092;1251;61739;-77
2023/10/11 06:34:17;;;;;;;4.40;3.80;;;;;;;17.46;39.26;102257.25;106140;1253;72618;-78
2023/10/11 06:36:48;;;;;;;3.90;3.40;;;;;;;16.70;40.29;102251.46;106105;1252;60517;-77
2023/10/11 06:40:07;;;;;;;6.10;4.10;;;;;;;15.97;41.07;102253.77;106155;1254;60537;-78
2023/10/11 06:42:23;;;;;;;7.80;4.30;;;;;;;15.13;42.95;102266.63;105910;1255;72901;-79
2023/10/11 06:44:52;;;;;;;6.30;3.90;;;;;;;14.54;44.38;102263.98;106158;1253;63739;-77
2023/10/11 06:47:21;;;;;;;6.90;5.10;;;;;;;14.00;45.69;102270.13;106081;1254;71419;-78
2023/10/11 06:49:49;;;;;;;6.60;4.80;;;;;;;13.53;47.12;102274.45;106119;1253;60542;-77
2023/10/11 06:52:25;;;;;;;6.10;4.60;;;;;;;13.09;48.28;102277.30;106166;1251;60567;-76
2023/10/11 06:55:08;;;;;;;8.00;5.40;;;;;;;12.64;49.78;102272.02;106120;1251;71621;-80
2023/10/11 06:57:39;;;;;;;6.30;4.90;;;;;;;12.20;50.35;102268.02;106458;1252;63843;-79
2023/10/11 07:00:23;;;;;;;5.80;3.70;;;;;;;11.84;51.23;102268.37;106073;1251;71436;-78
2023/10/11 07:03:21;;;;;;;5.10;4.10;;;;;;;11.51;52.77;102268.38;106144;1253;60441;-78
2023/10/11 07:05:49;;;;;;;6.90;4.20;;;;;;;11.19;54.86;102270.10;106119;1251;60896;-77
2023/10/11 07:08:18;;;;;;;10.40;4.50;;;;;;;11.05;56.57;102273.02;106163;1254;73782;-78
2023/10/11 07:11:16;;;;;;;8.60;3.30;;;;;;;11.30;58.90;102269.16;106152;1250;62361;-77
2023/10/11 07:13:49;;;;;;;7.90;3.60;;;;;;;12.18;56.16;102272.48;106182;1251;74139;-78
2023/10/11 07:16:19;;;;;;;5.10;3.70;;;;;;;13.14;52.06;102272.13;106102;1251;60531;-78
2023/10/11 07:18:46;;;;;;;5.00;3.30;;;;;;;14.14;48.05;102269.27;106045;1253;60531;-77
2023/10/11 07:21:16;;;;;;;4.40;3.30;;;;;;;15.09;46.07;102272.46;106122;1251;73931;-79
2023/10/11 07:26:47;;;;;;;3.00;2.70;;;;;;;16.83;40.06;102274.90;106152;1251;72475;-78
2023/10/11 07:29:16;;;;;;;5.40;3.20;;;;;;;17.70;36.37;102281.42;106147;1251;60495;-80
2023/10/11 07:31:50;;;;;;;2.40;2.20;;;;;;;18.42;34.16;102281.38;105831;1254;60457;-78
2023/10/11 07:34:20;;;;;;;3.00;1.80;;;;;;;19.08;31.99;102281.87;106048;1254;73730;-77
2023/10/11 07:36:51;;;;;;;3.10;1.70;;;;;;;19.65;31.05;102277.86;106114;1254;63359;-78
2023/10/11 07:39:25;;;;;;;1.80;1.60;;;;;;;20.24;29.89;102281.39;105923;1265;72512;-78
2023/10/11 07:42:02;;;;;;;2.50;2.00;;;;;;;20.71;29.66;102279.64;105998;1254;60504;-79
2023/10/11 07:44:30;;;;;;;4.70;2.00;;;;;;;21.05;29.27;102277.54;106123;1253;60564;-78
2023/10/11 07:46:57;;;;;;;2.10;1.90;;;;;;;21.33;29.05;102282.32;106099;1251;73965;-78
2023/10/11 07:49:25;;;;;;;2.00;1.90;;;;;;;21.66;28.20;102284.52;106013;1252;63890;-78
2023/10/11 07:51:53;;;;;;;1.70;1.50;;;;;;;22.01;27.93;102285.42;106129;1250;72570;-79
2023/10/11 07:54:20;;;;;;;1.80;1.60;;;;;;;22.40;27.31;102288.80;106120;1255;60370;-78
2023/10/11 07:56:55;;;;;;;2.40;1.30;;;;;;;22.80;26.96;102292.02;106054;1251;60482;-78
2023/10/11 07:59:26;;;;;;;0.50;0.50;;;;;;;23.10;25.97;102290.57;105817;1251;71608;-78
2023/10/11 08:01:56;;;;;;;1.00;0.70;;;;;;;23.39;24.93;102296.73;105900;1251;62807;-77
2023/10/11 08:04:29;;;;;;;1.40;1.00;;;;;;;23.49;24.07;102293.21;106073;1254;72497;-80
2023/10/11 08:06:59;;;;;;;2.70;0.90;;;;;;;23.44;24.02;102299.20;106100;1253;60486;-80
2023/10/11 08:12:23;;;;;;;1.90;0.40;;;;;;;23.65;23.40;102297.13;105982;1253;73142;-79
2023/10/11 08:14:53;;;;;;;1.20;0.70;;;;;;;23.81;23.28;102295.17;105927;1258;63876;-77
2023/10/11 08:17:21;;;;;;;1.30;0.40;;;;;;;23.95;23.11;102295.70;106108;1253;72558;-78
2023/10/11 08:19:53;;;;;;;0.80;0.70;;;;;;;24.11;23.06;102296.56;105998;1253;60539;-79
2023/10/11 08:22:22;;;;;;;0.90;0.60;;;;;;;24.35;23.54;102295.83;105975;1252;60459;-79
2023/10/11 08:24:50;;;;;;;0.90;0.80;;;;;;;24.33;22.72;102299.42;106169;1249;73785;-81
2023/10/11 08:27:28;;;;;;;0.70;0.70;;;;;;;24.31;22.91;102299.90;106049;1254;63911;-80
2023/10/11 08:30:16;;;;;;;1.00;0.50;;;;;;;24.49;22.87;102302.59;106224;1251;72407;-78
2023/10/11 08:32:46;;;;;;;1.00;0.70;;;;;;;24.69;22.31;102304.87;106111;1253;60626;-78
2023/10/11 08:35:25;;;;;;;0.60;0.50;;;;;;;24.74;21.92;102305.80;106108;1252;60552;-79
2023/10/11 08:37:53;;;;;;;0.60;0.50;;;;;;;24.72;21.67;102306.77;105973;1251;73738;-79
2023/10/11 08:40:22;;;;;;;1.40;0.70;;;;;;;24.56;21.93;102304.86;106354;1251;63846;-79
2023/10/11 08:42:50;;;;;;;1.20;0.60;;;;;;;24.54;21.29;102306.95;106367;1257;72509;-78
2023/10/11 08:45:24;;;;;;;0.30;0.30;;;;;;;24.54;21.39;102305.56;106232;1254;60568;-79
2023/10/11 08:47:53;;;;;;;1.20;0.30;;;;;;;24.63;20.91;102310.92;106188;1251;60705;-80
2023/10/11 08:50:21;;;;;;;0.60;0.50;;;;;;;24.55;20.96;102307.42;106189;1252;73890;-77
2023/10/11 08:52:48;;;;;;;1.20;0.70;;;;;;;24.44;20.81;102309.11;106104;1254;63755;-81
2023/10/11 08:55:19;;;;;;;1.40;0.50;;;;;;;24.29;20.82;102314.48;105861;1251;72661;-80
2023/10/11 08:57:50;;;;;;;3.70;0.70;;;;;;;24.29;20.81;102318.35;105942;1251;61038;-80
2023/10/11 09:00:29;;;;;;;0.30;0.30;;;;;;;24.26;21.11;102318.80;105892;1251;60447;-81
2023/10/11 09:02:58;;;;;;;0.90;0.60;;;;;;;24.32;21.38;102314.52;106165;1249;73678;-78
2023/10/11 09:05:43;;;;;;;0.80;0.60;;;;;;;24.50;21.06;102313.41;106157;1255;63728;-80
2023/10/11 09:08:21;;;;;;;0.90;0.60;;;;;;;24.73;21.02;102313.31;106138;1254;72497;-80
2023/10/11 09:11:05;;;;;;;2.70;0.70;;;;;;;24.67;20.13;102307.20;106152;1254;60574;-81
2023/10/11 09:13:36;;;;;;;1.00;0.80;;;;;;;24.57;20.21;102304.69;106189;1253;60450;-80
2023/10/11 09:16:08;;;;;;;0.70;0.70;;;;;;;24.79;20.28;102304.99;106128;1253;73819;-78
2023/10/11 09:18:36;;;;;;;1.40;1.00;;;;;;;24.89;20.08;102301.21;106129;1253;62577;-78
2023/10/11 09:21:10;;;;;;;0.90;0.80;;;;;;;25.13;20.04;102295.02;106164;1251;72579;-80
2023/10/11 09:23:39;;;;;;;0.90;0.60;;;;;;;25.34;19.64;102294.06;105777;1251;60469;-78
2023/10/11 09:26:08;;;;;;;0.50;0.40;;;;;;;25.23;19.34;102290.10;106087;1251;60556;-79
2023/10/11 09:28:40;;;;;;;1.60;0.60;;;;;;;25.08;19.74;102290.64;106235;1254;73959;-80
2023/10/11 09:31:20;;;;;;;0.50;0.50;;;;;;;24.90;19.63;102293.56;106205;1254;63738;-77
2023/10/11 09:33:50;;;;;;;0.60;0.50;;;;;;;24.91;19.56;102287.63;106183;1252;72867;-79
2023/10/11 09:36:20;;;;;;;0.90;0.70;;;;;;;24.88;19.20;102286.82;106211;1253;60536;-81
2023/10/11 09:38:54;;;;;;;1.10;1.00;;;;;;;24.74;18.76;102282.01;106156;1252;60584;-77
2023/10/11 09:41:23;;;;;;;0.60;0.50;;;;;;;24.78;19.11;102279.73;106167;1253;73263;-80
2023/10/11 09:43:57;;;;;;;1.30;0.80;;;;;;;24.81;19.06;102279.91;106193;1253;63817;-79
2023/10/11 09:46:30;;;;;;;1.30;0.70;;;;;;;24.97;19.00;102275.97;106438;1254;72558;-77
2023/10/11 09:49:03;;;;;;;0.60;0.60;;;;;;;25.20;19.66;102278.98;106069;1250;60600;-77
2023/10/11 09:51:30;;;;;;;1.30;0.60;;;;;;;25.45;19.38;102277.94;106054;1251;61238;-78
2023/10/11 09:54:07;;;;;;;1.50;1.00;;;;;;;25.67;19.56;102271.91;106102;1254;73479;-79
2023/10/11 09:56:57;;;;;;;1.20;1.10;;;;;;;25.63;19.64;102267.97;106094;1263;65072;-78
2023/10/11 09:59:34;;;;;;;1.50;0.70;;;;;;;25.69;19.14;102260.20;105970;1253;72366;-78
2023/10/11 10:02:14;;;;;;;0.50;0.40;;;;;;;25.87;19.05;102254.20;105978;1254;60546;-79
2023/10/11 10:04:50;;;;;;;0.80;0.50;;;;;;;25.93;18.70;102248.05;105934;1255;60466;-76
2023/10/11 10:07:26;;;;;;;;;;;;;;;25.99;18.56;102247.91;106136;1253;73576;-78
2023/10/11 10:09:54;;;;;;;1.40;0.60;;;;;;;25.87;18.78;102245.36;105939;1251;63102;-78
2023/10/11 10:12:25;;;;;;;1.10;0.70;;;;;;;25.56;18.28;102247.10;105995;1251;71712;-77
2023/10/11 10:15:20;;;;;;;1.00;0.90;;;;;;;25.26;18.68;102244.04;106077;1253;60433;-79
2023/10/11 10:18:00;;;;;;;0.90;0.60;;;;;;;24.93;18.99;102241.92;106133;1251;61964;-77
2023/10/11 10:20:34;;;;;;;0.90;0.50;;;;;;;24.83;19.11;102239.81;106131;1254;73924;-78
2023/10/11 10:23:14;;;;;;;1.50;0.50;;;;;;;24.97;18.66;102239.83;106077;1253;63740;-78
2023/10/11 10:25:46;;;;;;;6.50;0.70;;;;;;;25.03;18.53;102238.63;106055;1254;72968;-76
2023/10/11 10:28:32;;;;;;;1.50;0.60;;;;;;;25.10;18.54;102237.11;106056;1253;60447;-78
2023/10/11 10:31:20;;;;;;;1.50;0.90;;;;;;;25.18;18.97;102232.38;106134;1251;60436;-79
2023/10/11 10:34:13;;;;;;;4.80;0.90;;;;;;;25.30;18.88;102232.20;106039;1254;74833;-76
2023/10/11 10:36:40;;;;;;;0.70;0.70;;;;;;;25.20;18.80;102234.86;105958;1254;64412;-77
2023/10/11 10:41:37;;;;;;;0.60;0.60;;;;;;;25.14;18.95;102231.87;106073;1254;60360;-76
2023/10/11 10:44:11;;;;;;;2.10;0.90;;;;;;;25.02;18.42;102229.49;106179;1252;61496;-76
2023/10/11 10:46:50;;;;;;;1.90;1.80;;;;;;;24.74;18.58;102225.13;106078;1251;74076;-79
2023/10/11 10:49:37;;;;;;;1.90;0.80;;;;;;;24.40;18.79;102223.15;106015;1254;63927;-78
2023/10/11 10:52:15;;;;;;;1.40;0.90;;;;;;;23.89;19.13;102222.45;106229;1251;72083;-78
2023/10/11 10:55:07;;;;;;;1.40;1.10;;;;;;;23.29;19.71;102221.07;105991;1254;60542;-77
2023/10/11 10:57:36;;;;;;;1.20;0.80;;;;;;;22.67;19.96;102224.96;106147;1251;61188;-78
2023/10/11 11:00:05;;;;;;;1.60;1.30;;;;;;;22.13;20.30;102223.85;106194;1254;73761;-79
2023/10/11 11:02:36;;;;;;;1.50;1.00;;;;;;;21.59;20.53;102221.88;106284;1251;61596;-80
2023/10/11 11:05:15;;;;;;;2.00;1.20;;;;;;;21.20;21.15;102222.48;106105;1253;72443;-77
2023/10/11 11:07:47;;;;;;;2.30;1.20;;;;;;;20.86;21.70;102226.20;106063;1253;60432;-77
2023/10/11 11:10:21;;;;;;;3.70;1.40;;;;;;;20.52;22.12;102224.73;105945;1252;60468;-77
2023/10/11 11:12:48;;;;;;;3.50;1.70;;;;;;;20.16;22.19;102224.95;106174;1251;73880;-77
2023/10/11 11:15:21;;;;;;;1.90;1.40;;;;;;;19.78;22.60;102222.49;106035;1254;63870;-77
2023/10/11 11:17:50;;;;;;;1.40;1.30;;;;;;;19.31;23.64;102225.33;105957;1254;72530;-76
2023/10/11 11:20:28;;;;;;;1.80;1.60;;;;;;;18.83;24.02;102228.30;106004;1254;60542;-77
2023/10/11 11:22:56;;;;;;;3.20;1.60;;;;;;;18.38;23.95;102234.20;105883;1249;60545;-77
2023/10/11 11:28:08;;;;;;;3.40;1.60;;;;;;;17.67;24.99;102224.65;106104;1253;64933;-78
2023/10/11 11:30:36;;;;;;;3.20;1.80;;;;;;;17.25;25.52;102225.37;105880;1256;72966;-78
2023/10/11 11:33:13;;;;;;;8.90;2.10;;;;;;;16.77;25.98;102226.36;105872;1256;60543;-77
2023/10/11 11:35:46;;;;;;;1.80;1.70;;;;;;;16.34;26.35;102224.80;106192;1249;60567;-77
2023/10/11 11:38:20;;;;;;;3.60;1.90;;;;;;;16.02;26.50;102226.16;106373;1250;73766;-76
2023/10/11 11:40:51;;;;;;;2.30;1.80;;;;;;;15.76;27.18;102227.99;106186;1253;63720;-76
2023/10/11 11:43:20;;;;;;;2.70;1.20;;;;;;;15.58;27.36;102224.56;106072;1251;72813;-74
2023/10/11 11:45:47;;;;;;;2.70;1.60;;;;;;;15.42;28.07;102224.73;105868;1256;60543;-75
2023/10/11 11:48:14;;;;;;;2.00;1.70;;;;;;;15.26;28.23;102224.67;106259;1253;60435;-76
2023/10/11 11:50:41;;;;;;;1.90;0.90;;;;;;;15.12;28.45;102225.26;106215;1253;73831;-76
2023/10/11 11:53:08;;;;;;;3.40;1.90;;;;;;;15.00;28.88;102228.02;106241;1253;63857;-76
2023/10/11 11:55:39;;;;;;;3.40;1.60;;;;;;;14.84;28.82;102232.19;106236;1253;71628;-77
2023/10/11 11:58:10;;;;;;;3.80;1.80;;;;;;;14.76;28.59;102232.08;106245;1253;60542;-75
2023/10/11 12:00:45;;;;;;;4.30;2.10;;;;;;;14.69;29.18;102235.77;106256;1253;60803;-74
2023/10/11 12:03:12;;;;;;;3.50;1.80;;;;;;;14.61;29.53;102235.48;106119;1249;73600;-76
2023/10/11 12:05:40;;;;;;;2.60;1.80;;;;;;;14.50;29.32;102232.13;106245;1251;63867;-76
2023/10/11 12:08:17;;;;;;;6.60;3.50;;;;;;;14.36;29.46;102232.84;106175;1253;72684;-76
2023/10/11 12:10:49;;;;;;;6.00;3.70;;;;;;;14.19;29.84;102238.27;106251;1254;60420;-78